Time;durP1;ratioP1;P1;durP2;ratioP2;P2;SDS_P1;SDS_P2;PMS_P1;PMS_P2;Temp;Humidity;BMP_temperature;BMP_pressure;BME280_temperature;BME280_humidity;BME280_pressure;Samples;Min_cycle;Max_cycle;Signal;HPM_P1;HPM_P2
2022/09/13 00:00:22;;;;;;;15.98;8.77;;;;;;;11.17;100.00;98794.72;5173234;27;20046;-49
2022/09/13 00:02:48;;;;;;;17.02;10.00;;;;;;;11.04;100.00;98796.16;5173030;27;20129;-47
2022/09/13 00:05:15;;;;;;;14.13;8.52;;;;;;;11.13;100.00;98787.59;5173016;27;20046;-46
2022/09/13 00:07:41;;;;;;;18.05;9.68;;;;;;;11.02;100.00;98803.97;5172746;27;20057;-46
2022/09/13 00:10:08;;;;;;;14.50;8.93;;;;;;;10.90;100.00;98790.53;5173205;27;20072;-47
2022/09/13 00:12:34;;;;;;;14.77;8.60;;;;;;;11.14;100.00;98787.22;5172773;27;20429;-48
2022/09/13 00:15:00;;;;;;;11.23;8.57;;;;;;;11.33;100.00;98791.72;5172980;27;20534;-48
2022/09/13 00:17:27;;;;;;;11.25;8.40;;;;;;;11.18;100.00;98799.03;5172697;27;20050;-47
2022/09/13 00:19:53;;;;;;;16.38;9.65;;;;;;;10.83;100.00;98794.78;5172596;27;20050;-47
2022/09/13 00:22:20;;;;;;;11.65;7.88;;;;;;;10.73;100.00;98786.41;5172647;27;20054;-48
2022/09/13 00:24:46;;;;;;;13.98;8.82;;;;;;;11.12;100.00;98778.59;5172576;27;20429;-50
2022/09/13 00:27:12;;;;;;;12.57;9.23;;;;;;;10.95;100.00;98787.44;5172685;27;20048;-47
2022/09/13 00:29:38;;;;;;;12.90;8.43;;;;;;;10.45;100.00;98776.69;5172538;27;20065;-46
2022/09/13 00:32:05;;;;;;;12.73;8.50;;;;;;;10.87;100.00;98761.91;5172340;27;20049;-49
2022/09/13 00:34:31;;;;;;;18.55;8.52;;;;;;;11.01;100.00;98756.53;5172042;27;20050;-47
2022/09/13 00:36:57;;;;;;;13.85;8.38;;;;;;;11.22;100.00;98766.13;5172325;27;20082;-48
2022/09/13 00:39:24;;;;;;;14.68;9.23;;;;;;;10.90;100.00;98780.34;5172416;27;20050;-48
2022/09/13 00:41:50;;;;;;;13.65;8.32;;;;;;;11.15;100.00;98788.81;5172526;27;20108;-49
2022/09/13 00:44:59;;;;;;;11.63;8.52;;;;;;;11.01;100.00;98794.16;5172159;27;20057;-47
2022/09/13 00:47:36;;;;;;;12.00;8.70;;;;;;;11.07;100.00;98798.94;5146505;27;20050;-46
2022/09/13 00:50:11;;;;;;;13.23;10.73;;;;;;;11.03;100.00;98809.09;5172415;27;20082;-47
2022/09/13 00:52:38;;;;;;;;;;;;;;;11.27;100.00;98812.44;5172938;27;20069;-47
2022/09/13 00:55:10;;;;;;;18.27;9.18;;;;;;;11.15;100.00;98815.47;5172304;27;20240;-47
2022/09/13 00:57:38;;;;;;;16.65;9.82;;;;;;;11.05;100.00;98836.13;5172206;27;20056;-48
2022/09/13 01:00:10;;;;;;;12.80;8.88;;;;;;;10.94;100.00;98832.50;5172029;27;20050;-48
2022/09/13 01:02:37;;;;;;;13.18;10.05;;;;;;;10.81;100.00;98820.97;5172160;27;20047;-47
2022/09/13 01:05:04;;;;;;;18.42;8.38;;;;;;;10.76;100.00;98804.84;5171948;27;20053;-50
2022/09/13 01:07:32;;;;;;;10.75;9.13;;;;;;;10.84;100.00;98795.56;5172399;27;20101;-46
2022/09/13 01:09:58;;;;;;;13.88;9.25;;;;;;;11.11;100.00;98795.44;5171873;27;20046;-47
2022/09/13 01:12:32;;;;;;;12.02;8.05;;;;;;;11.21;100.00;98801.00;5172281;27;20048;-49
2022/09/13 01:15:00;;;;;;;16.27;9.05;;;;;;;11.03;100.00;98805.56;5171931;27;20060;-46
2022/09/13 01:17:27;;;;;;;13.65;8.68;;;;;;;10.93;100.00;98800.72;5171902;27;20064;-46
2022/09/13 01:19:53;;;;;;;13.60;8.02;;;;;;;11.00;100.00;98796.13;5171859;27;20058;-47
2022/09/13 01:23:04;;;;;;;13.07;8.60;;;;;;;11.14;100.00;98803.69;5171873;27;20050;-46
2022/09/13 01:26:11;;;;;;;13.38;8.18;;;;;;;11.12;100.00;98794.25;5172275;27;20077;-46
2022/09/13 01:29:07;;;;;;;11.45;8.38;;;;;;;11.08;100.00;98795.00;5171775;27;20054;-46
2022/09/13 01:31:40;;;;;;;12.20;7.80;;;;;;;11.20;100.00;98793.97;5171696;27;20065;-46
2022/09/13 01:34:17;;;;;;;13.70;8.27;;;;;;;10.98;100.00;98798.44;5172023;27;20466;-47
2022/09/13 01:37:05;;;;;;;13.20;9.05;;;;;;;11.14;100.00;98795.47;5171832;27;20050;-46
2022/09/13 01:39:47;;;;;;;15.90;8.77;;;;;;;11.27;100.00;98799.50;5169096;27;20129;-46
2022/09/13 01:42:24;;;;;;;16.85;9.23;;;;;;;11.20;100.00;98798.66;5171490;27;20046;-47
2022/09/13 01:45:04;;;;;;;15.68;8.45;;;;;;;11.20;100.00;98804.16;5171507;27;20046;-47
2022/09/13 01:47:38;;;;;;;11.20;8.10;;;;;;;11.41;100.00;98804.34;5173898;27;20409;-46
2022/09/13 01:50:15;;;;;;;13.02;8.18;;;;;;;11.20;100.00;98829.63;5174943;27;20078;-47
2022/09/13 01:52:48;;;;;;;11.75;7.97;;;;;;;11.35;100.00;98827.78;5175212;27;20475;-49
2022/09/13 01:55:26;;;;;;;10.93;7.83;;;;;;;11.44;100.00;98835.72;5175168;27;20102;-47
2022/09/13 01:58:00;;;;;;;16.15;8.77;;;;;;;11.29;100.00;98835.56;5174939;27;20082;-47
2022/09/13 02:00:31;;;;;;;17.27;8.65;;;;;;;11.49;100.00;98841.63;5174963;27;20050;-47
2022/09/13 02:03:04;;;;;;;12.98;9.15;;;;;;;11.25;100.00;98843.00;5175258;27;20050;-48
2022/09/13 02:05:38;;;;;;;12.10;8.48;;;;;;;11.34;100.00;98834.47;5174962;27;20442;-47
2022/09/13 02:08:09;;;;;;;12.03;8.20;;;;;;;11.30;100.00;98828.16;5174814;27;20402;-46
2022/09/13 02:10:40;;;;;;;16.40;8.10;;;;;;;11.34;100.00;98833.69;5174684;27;20137;-46
2022/09/13 02:13:12;;;;;;;11.20;8.15;;;;;;;11.43;100.00;98856.09;5174836;27;20054;-50
2022/09/13 02:15:44;;;;;;;11.05;8.30;;;;;;;11.40;100.00;98854.91;5174766;27;20057;-47
2022/09/13 02:18:17;;;;;;;13.98;8.23;;;;;;;11.54;100.00;98857.00;5174815;27;20054;-48
2022/09/13 02:20:46;;;;;;;11.00;8.23;;;;;;;11.56;100.00;98871.13;5174615;27;20050;-48
2022/09/13 02:23:16;;;;;;;12.60;8.40;;;;;;;11.30;100.00;98852.84;5174397;27;20409;-47
2022/09/13 02:25:44;;;;;;;13.20;7.82;;;;;;;11.15;100.00;98846.41;5174668;27;20600;-50
2022/09/13 02:28:16;;;;;;;14.43;7.97;;;;;;;11.26;100.00;98833.63;5175010;27;20487;-47
2022/09/13 02:30:48;;;;;;;9.73;7.72;;;;;;;11.52;100.00;98824.41;5174422;27;20110;-48
2022/09/13 02:33:19;;;;;;;10.82;8.02;;;;;;;11.29;100.00;98824.59;5174702;27;20050;-50
2022/09/13 02:35:52;;;;;;;17.45;8.30;;;;;;;11.46;100.00;98825.97;5174316;27;20050;-47
2022/09/13 02:38:22;;;;;;;10.88;7.15;;;;;;;11.54;100.00;98838.56;5174763;27;20119;-47
2022/09/13 02:40:55;;;;;;;10.20;7.78;;;;;;;11.61;100.00;98842.53;5174274;27;20042;-50
2022/09/13 02:43:27;;;;;;;12.18;7.90;;;;;;;11.48;100.00;98842.81;5174234;27;20405;-47
2022/09/13 02:46:08;;;;;;;12.43;8.32;;;;;;;11.48;100.00;98851.06;5174241;27;20043;-47
2022/09/13 02:48:46;;;;;;;9.07;7.45;;;;;;;11.61;100.00;98856.28;5174286;27;20074;-47
2022/09/13 02:51:20;;;;;;;14.02;7.80;;;;;;;11.43;100.00;98867.06;5174137;27;20429;-47
2022/09/13 02:53:54;;;;;;;14.18;8.15;;;;;;;11.38;100.00;98859.19;5174099;27;20054;-48
2022/09/13 02:56:27;;;;;;;10.90;7.95;;;;;;;11.25;100.00;98844.94;5174353;27;20111;-47
2022/09/13 02:59:01;;;;;;;19.67;8.77;;;;;;;11.29;100.00;98826.56;5173033;27;20079;-46
2022/09/13 03:01:27;;;;;;;14.73;8.73;;;;;;;11.38;100.00;98829.00;5173806;27;20488;-47
2022/09/13 03:03:55;;;;;;;15.23;8.80;;;;;;;11.45;100.00;98820.81;5173560;27;20050;-47
2022/09/13 03:06:22;;;;;;;13.57;8.77;;;;;;;11.54;100.00;98822.09;5173953;27;20047;-47
2022/09/13 03:08:49;;;;;;;15.82;8.82;;;;;;;11.40;100.00;98840.41;5174004;27;20050;-46
2022/09/13 03:11:24;;;;;;;14.13;8.88;;;;;;;11.45;100.00;98829.84;5173739;27;20532;-46
2022/09/13 03:14:07;;;;;;;12.52;8.75;;;;;;;11.41;100.00;98834.53;5173762;27;20084;-47
2022/09/13 03:16:47;;;;;;;15.20;8.43;;;;;;;11.07;100.00;98822.84;5173856;27;20054;-47
2022/09/13 03:19:28;;;;;;;14.98;9.02;;;;;;;11.14;100.00;98811.94;5173715;27;20061;-48
2022/09/13 03:22:11;;;;;;;14.52;8.35;;;;;;;11.34;100.00;98811.72;5173670;27;20046;-46
2022/09/13 03:24:49;;;;;;;16.25;8.90;;;;;;;11.26;100.00;98808.91;5173538;27;20058;-50
2022/09/13 03:27:23;;;;;;;23.80;9.35;;;;;;;11.40;100.00;98805.50;5173742;27;20094;-47
2022/09/13 03:29:53;;;;;;;;;;;;;;;11.39;100.00;98823.13;5173921;27;20050;-46
2022/09/13 03:32:26;;;;;;;14.27;9.23;;;;;;;11.41;100.00;98822.75;5173623;27;20321;-47
2022/09/13 03:35:02;;;;;;;15.85;9.05;;;;;;;11.38;100.00;98835.28;5173327;27;20535;-47
2022/09/13 03:37:35;;;;;;;13.10;9.45;;;;;;;11.46;100.00;98828.69;5173472;27;20470;-48
2022/09/13 03:40:08;;;;;;;16.57;8.63;;;;;;;11.58;100.00;98840.56;5173497;27;20090;-46
2022/09/13 03:42:41;;;;;;;11.75;8.45;;;;;;;11.36;100.00;98840.34;5173278;27;20171;-46
2022/09/13 03:45:09;;;;;;;12.55;8.70;;;;;;;11.17;100.00;98838.63;5173237;27;20054;-46
2022/09/13 03:47:40;;;;;;;18.83;9.65;;;;;;;11.44;100.00;98822.00;5173247;27;20053;-47
2022/09/13 03:50:09;;;;;;;13.10;9.13;;;;;;;11.08;100.00;98829.88;5173111;27;20042;-46
2022/09/13 03:52:36;;;;;;;17.20;9.48;;;;;;;11.16;100.00;98822.50;5173050;27;20071;-46
2022/09/13 03:55:02;;;;;;;17.83;8.98;;;;;;;11.26;100.00;98816.34;5173315;27;20053;-46
2022/09/13 03:57:29;;;;;;;16.02;10.20;;;;;;;11.26;100.00;98810.84;5173075;27;20057;-46
2022/09/13 03:59:56;;;;;;;25.42;10.80;;;;;;;11.36;100.00;98812.13;5172922;27;20057;-47
2022/09/13 04:02:24;;;;;;;15.88;9.88;;;;;;;11.47;100.00;98816.53;5173192;27;20058;-47
2022/09/13 04:04:51;;;;;;;17.60;9.80;;;;;;;11.32;100.00;98823.84;5172809;27;20054;-47
2022/09/13 04:07:20;;;;;;;15.07;9.75;;;;;;;11.29;100.00;98808.13;5173015;27;20046;-47
2022/09/13 04:09:46;;;;;;;13.15;9.13;;;;;;;11.55;100.00;98809.94;5172896;27;20429;-46
2022/09/13 04:12:13;;;;;;;14.02;9.65;;;;;;;11.31;100.00;98816.00;5172815;27;20046;-46
2022/09/13 04:14:39;;;;;;;19.20;9.73;;;;;;;11.39;100.00;98816.84;5172820;27;20058;-46
2022/09/13 04:17:06;;;;;;;18.13;10.90;;;;;;;11.55;100.00;98811.91;5172610;27;20497;-48
2022/09/13 04:19:32;;;;;;;16.85;10.48;;;;;;;11.57;100.00;98826.03;5172771;27;20057;-47
2022/09/13 04:21:59;;;;;;;16.20;10.00;;;;;;;11.71;100.00;98830.84;5172524;27;20049;-46
2022/09/13 04:24:27;;;;;;;17.70;10.10;;;;;;;11.43;100.00;98837.69;5172538;27;20046;-47
2022/09/13 04:26:54;;;;;;;17.63;10.45;;;;;;;11.60;100.00;98833.53;5172615;27;20080;-48
2022/09/13 04:29:21;;;;;;;18.48;9.80;;;;;;;11.57;100.00;98845.25;5172788;27;20061;-47
2022/09/13 04:31:48;;;;;;;21.02;10.50;;;;;;;11.50;100.00;98847.94;5172473;27;20042;-47
2022/09/13 04:34:14;;;;;;;13.82;8.80;;;;;;;11.68;100.00;98845.34;5172492;27;20054;-46
2022/09/13 04:36:41;;;;;;;21.88;10.57;;;;;;;11.17;100.00;98840.56;5172710;27;20050;-47
2022/09/13 04:39:07;;;;;;;17.52;10.57;;;;;;;11.53;100.00;98820.53;5172341;27;20050;-47
2022/09/13 04:41:34;;;;;;;22.55;11.10;;;;;;;11.30;100.00;98823.44;5172353;27;20048;-47
2022/09/13 04:44:00;;;;;;;15.85;9.90;;;;;;;11.18;100.00;98828.41;5172326;27;20505;-47
2022/09/13 04:46:26;;;;;;;16.75;10.50;;;;;;;11.44;100.00;98819.25;5172387;27;20065;-46
2022/09/13 04:48:53;;;;;;;20.42;10.32;;;;;;;11.42;100.00;98816.09;5172616;27;20663;-47
2022/09/13 04:51:20;;;;;;;19.75;10.15;;;;;;;11.15;100.00;98818.19;5172397;27;20058;-46
2022/09/13 04:53:50;;;;;;;21.52;9.90;;;;;;;11.61;100.00;98810.38;5172448;27;20166;-48
2022/09/13 04:56:18;;;;;;;21.70;9.70;;;;;;;11.69;100.00;98824.94;5172018;27;20050;-48
2022/09/13 04:58:45;;;;;;;17.77;9.15;;;;;;;11.65;100.00;98826.88;5172157;27;20050;-48
2022/09/13 05:01:11;;;;;;;18.00;10.10;;;;;;;11.71;100.00;98834.38;5172299;27;20042;-47
2022/09/13 05:03:38;;;;;;;23.05;10.57;;;;;;;11.42;100.00;98829.81;5172038;27;20145;-47
2022/09/13 05:06:06;;;;;;;21.48;11.35;;;;;;;11.64;100.00;98828.84;5172033;27;20054;-46
2022/09/13 05:08:32;;;;;;;22.35;10.73;;;;;;;11.54;100.00;98822.09;5172207;27;20054;-50
2022/09/13 05:10:58;;;;;;;19.02;11.52;;;;;;;11.49;100.00;98816.16;5171926;27;20046;-50
2022/09/13 05:13:25;;;;;;;26.95;10.95;;;;;;;11.43;100.00;98823.97;5172052;27;20464;-46
2022/09/13 05:15:55;;;;;;;21.55;9.82;;;;;;;11.13;100.00;98810.34;5172226;27;20050;-47
2022/09/13 05:18:22;;;;;;;22.25;9.82;;;;;;;11.13;100.00;98791.16;5171668;27;20054;-50
2022/09/13 05:20:48;;;;;;;30.13;10.43;;;;;;;11.44;100.00;98778.09;5171760;27;20050;-48
2022/09/13 05:23:14;;;;;;;16.23;9.75;;;;;;;11.24;100.00;98792.03;5175387;27;20057;-48
2022/09/13 05:25:40;;;;;;;19.17;9.52;;;;;;;11.26;100.00;98792.44;5175436;27;20425;-47
2022/09/13 05:28:06;;;;;;;19.27;10.18;;;;;;;11.20;100.00;98784.94;5175572;27;20053;-49
2022/09/13 05:30:32;;;;;;;14.40;10.00;;;;;;;11.58;100.00;98789.16;5175349;27;20046;-48
2022/09/13 05:32:59;;;;;;;17.60;10.52;;;;;;;11.47;100.00;98791.84;5175680;27;20047;-46
2022/09/13 05:35:26;;;;;;;22.77;10.32;;;;;;;10.87;100.00;98781.09;5175507;27;20053;-46
2022/09/13 05:37:52;;;;;;;13.07;9.02;;;;;;;11.11;100.00;98757.81;5175617;27;20604;-48
2022/09/13 05:40:18;;;;;;;17.20;9.30;;;;;;;11.18;100.00;98755.13;5175476;27;20136;-48
2022/09/13 05:42:44;;;;;;;20.83;9.85;;;;;;;11.52;100.00;98758.53;5175026;27;20053;-46
2022/09/13 05:45:11;;;;;;;14.27;8.85;;;;;;;11.27;100.00;98766.59;5174984;27;20046;-47
2022/09/13 05:47:37;;;;;;;18.08;10.05;;;;;;;11.18;100.00;98762.56;5175527;27;20053;-46
2022/09/13 05:50:05;;;;;;;15.45;9.52;;;;;;;11.34;100.00;98754.09;5174876;27;20141;-55
2022/09/13 05:52:31;;;;;;;14.82;8.43;;;;;;;11.60;100.00;98764.88;5174933;27;20046;-46
2022/09/13 05:54:57;;;;;;;16.90;9.13;;;;;;;11.83;100.00;98788.56;5174981;27;20146;-47
2022/09/13 05:57:23;;;;;;;35.92;9.82;;;;;;;11.55;100.00;98806.41;5174737;27;20057;-48
2022/09/13 05:59:50;;;;;;;23.15;10.48;;;;;;;11.58;100.00;98816.63;5174996;27;20058;-48
2022/09/13 06:02:16;;;;;;;23.48;9.23;;;;;;;11.29;100.00;98821.06;5174932;27;20047;-48
2022/09/13 06:04:42;;;;;;;24.85;9.40;;;;;;;11.44;100.00;98802.78;5174587;27;20508;-47
2022/09/13 06:07:11;;;;;;;32.05;10.32;;;;;;;11.55;100.00;98820.13;5174652;27;20050;-48
2022/09/13 06:09:37;;;;;;;17.88;9.55;;;;;;;11.48;100.00;98826.34;5174492;27;20070;-47
2022/09/13 06:12:04;;;;;;;19.77;10.38;;;;;;;11.53;100.00;98831.50;5174734;27;20062;-50
2022/09/13 06:14:30;;;;;;;20.05;9.02;;;;;;;11.59;100.00;98825.66;5175066;27;20061;-49
2022/09/13 06:16:56;;;;;;;14.18;8.50;;;;;;;11.69;100.00;98825.72;5174671;27;20046;-49
2022/09/13 06:19:23;;;;;;;31.75;9.45;;;;;;;11.97;100.00;98829.91;5174663;27;20150;-49
2022/09/13 06:21:49;;;;;;;29.58;9.40;;;;;;;11.90;100.00;98835.34;5174676;27;20050;-48
2022/09/13 06:24:16;;;;;;;13.20;8.80;;;;;;;11.82;100.00;98847.41;5174395;27;20046;-48
2022/09/13 06:26:42;;;;;;;19.58;8.25;;;;;;;11.70;100.00;98857.53;5174574;27;20533;-50
2022/09/13 06:29:10;;;;;;;14.43;9.70;;;;;;;12.00;100.00;98845.63;5174318;27;20050;-51
2022/09/13 06:31:37;;;;;;;14.45;9.02;;;;;;;11.93;100.00;98856.56;5174368;27;20046;-50
2022/09/13 06:34:04;;;;;;;17.55;9.27;;;;;;;12.11;100.00;98857.47;5173122;27;20046;-48
2022/09/13 06:36:31;;;;;;;18.67;9.38;;;;;;;11.85;100.00;98868.66;5174299;27;20050;-50
2022/09/13 06:38:59;;;;;;;16.58;9.90;;;;;;;11.84;100.00;98873.34;5174420;27;20053;-53
2022/09/13 06:41:26;;;;;;;14.80;9.27;;;;;;;11.98;100.00;98867.97;5173895;27;20050;-51
2022/09/13 06:43:54;;;;;;;15.27;8.70;;;;;;;11.94;100.00;98883.66;5174037;27;20469;-53
2022/09/13 06:46:20;;;;;;;16.58;9.23;;;;;;;11.89;100.00;98891.44;5174260;27;20417;-49
2022/09/13 06:48:47;;;;;;;15.25;8.70;;;;;;;11.93;100.00;98901.31;5174033;27;20049;-49
2022/09/13 06:51:16;;;;;;;22.95;10.30;;;;;;;12.08;100.00;98890.41;5174056;27;20074;-50
2022/09/13 06:53:43;;;;;;;22.02;10.00;;;;;;;12.24;100.00;98899.16;5174049;27;20054;-49
2022/09/13 06:56:12;;;;;;;17.95;9.10;;;;;;;12.24;100.00;98910.94;5173802;27;20053;-51
2022/09/13 06:58:40;;;;;;;19.48;9.48;;;;;;;12.17;100.00;98924.66;5174021;27;20429;-51
2022/09/13 07:01:11;;;;;;;22.23;11.23;;;;;;;12.28;100.00;98927.47;5173632;27;20053;-51
2022/09/13 07:03:38;;;;;;;23.45;9.40;;;;;;;12.14;100.00;98933.66;5173829;27;20042;-50
2022/09/13 07:06:09;;;;;;;14.38;9.18;;;;;;;12.00;100.00;98919.81;5173989;27;20502;-49
2022/09/13 07:08:35;;;;;;;17.10;10.50;;;;;;;12.09;100.00;98898.25;5173953;27;20137;-52
2022/09/13 07:11:02;;;;;;;19.08;10.35;;;;;;;12.34;100.00;98901.19;5173398;27;20050;-50
2022/09/13 07:13:29;;;;;;;18.50;10.43;;;;;;;12.55;100.00;98917.03;5173658;27;20061;-53
2022/09/13 07:15:56;;;;;;;20.23;11.13;;;;;;;12.48;100.00;98939.00;5173833;27;20046;-54
2022/09/13 07:18:22;;;;;;;24.52;10.93;;;;;;;12.27;100.00;98938.84;5173479;27;20078;-52
2022/09/13 07:20:48;;;;;;;21.30;11.10;;;;;;;12.46;100.00;98935.81;5173733;27;20409;-53
2022/09/13 07:23:15;;;;;;;24.20;12.57;;;;;;;12.55;100.00;98955.53;5173332;27;20106;-51
2022/09/13 07:25:41;;;;;;;24.45;11.93;;;;;;;12.27;100.00;98963.59;5173787;27;20103;-53
2022/09/13 07:28:07;;;;;;;17.88;10.30;;;;;;;12.20;100.00;98956.88;5173628;27;20079;-50
2022/09/13 07:30:33;;;;;;;19.65;10.75;;;;;;;12.15;100.00;98948.16;5173477;27;20077;-54
2022/09/13 07:33:00;;;;;;;20.75;11.23;;;;;;;12.06;100.00;98939.44;5173260;27;20054;-54
2022/09/13 07:35:27;;;;;;;19.27;10.90;;;;;;;12.26;100.00;98910.56;5173143;27;20068;-52
2022/09/13 07:37:53;;;;;;;25.52;10.90;;;;;;;11.90;100.00;98924.03;5173039;27;20493;-52
2022/09/13 07:40:19;;;;;;;18.40;11.75;;;;;;;12.35;100.00;98912.97;5173376;27;20050;-50
2022/09/13 07:42:46;;;;;;;22.52;11.35;;;;;;;12.31;100.00;98929.44;5173106;27;20508;-52
2022/09/13 07:45:12;;;;;;;19.50;10.90;;;;;;;12.66;100.00;98928.91;5172587;27;20137;-54
2022/09/13 07:47:39;;;;;;;20.27;10.60;;;;;;;12.66;100.00;98945.41;5173113;27;20516;-52
2022/09/13 07:50:06;;;;;;;16.83;9.82;;;;;;;12.66;100.00;98953.66;5172922;27;20178;-53
2022/09/13 07:52:36;;;;;;;21.23;11.00;;;;;;;12.93;100.00;98964.41;5172984;27;20134;-50
2022/09/13 07:55:03;;;;;;;17.63;9.93;;;;;;;12.72;100.00;98990.59;5173051;27;20076;-52
2022/09/13 07:57:29;;;;;;;14.88;9.65;;;;;;;12.89;100.00;98999.34;5172778;27;20078;-51
2022/09/13 07:59:55;;;;;;;18.50;10.77;;;;;;;12.76;100.00;98998.09;5172787;27;20134;-52
2022/09/13 08:02:21;;;;;;;15.23;9.57;;;;;;;12.98;100.00;99010.81;5172737;27;20046;-50
2022/09/13 08:04:47;;;;;;;19.05;9.00;;;;;;;13.10;100.00;99016.00;5172592;27;20058;-51
2022/09/13 08:07:14;;;;;;;19.67;10.18;;;;;;;13.01;100.00;99037.56;5172809;27;20054;-51
2022/09/13 08:09:41;;;;;;;19.85;9.60;;;;;;;13.20;100.00;99036.50;5172707;27;20140;-50
2022/09/13 08:12:07;;;;;;;18.75;9.32;;;;;;;13.19;100.00;99035.72;5172688;27;20102;-51
2022/09/13 08:14:33;;;;;;;16.05;8.93;;;;;;;13.19;100.00;99052.22;5172520;27;20050;-52
2022/09/13 08:17:00;;;;;;;11.63;8.75;;;;;;;13.52;100.00;99042.16;5172625;27;20530;-52
2022/09/13 08:19:27;;;;;;;20.45;9.85;;;;;;;13.07;100.00;99060.78;5172663;27;20081;-51
2022/09/13 08:21:53;;;;;;;16.58;9.88;;;;;;;13.16;100.00;99058.50;5172629;27;20408;-54
2022/09/13 08:24:21;;;;;;;13.27;9.20;;;;;;;13.10;100.00;99073.78;5172358;27;20054;-54
2022/09/13 08:26:48;;;;;;;20.90;10.15;;;;;;;13.19;100.00;99065.16;5172447;27;20053;-55
2022/09/13 08:29:15;;;;;;;22.50;10.85;;;;;;;13.11;100.00;99067.09;5172362;27;20046;-55
2022/09/13 08:31:41;;;;;;;17.25;10.50;;;;;;;12.92;100.00;99065.41;5172433;27;20050;-51
2022/09/13 08:34:10;;;;;;;17.80;10.00;;;;;;;13.04;100.00;99066.28;5172832;27;20106;-53
2022/09/13 08:36:36;;;;;;;15.70;10.13;;;;;;;12.77;100.00;99054.69;5172312;27;20091;-50
2022/09/13 08:39:03;;;;;;;16.88;10.93;;;;;;;13.14;100.00;99055.31;5172427;27;20046;-54
2022/09/13 08:42:04;;;;;;;20.13;11.63;;;;;;;12.65;100.00;99053.03;5172413;27;20046;-52
2022/09/13 08:44:34;;;;;;;14.40;10.48;;;;;;;13.10;100.00;99056.50;5172138;27;20050;-52
2022/09/13 08:47:14;;;;;;;14.45;9.68;;;;;;;12.61;100.00;99065.97;5172534;27;20042;-55
2022/09/13 08:49:44;;;;;;;15.52;9.88;;;;;;;12.14;100.00;99053.78;5172347;27;20088;-55
2022/09/13 08:52:23;;;;;;;12.90;8.85;;;;;;;12.26;100.00;99050.72;5172260;27;20050;-54
2022/09/13 08:54:52;;;;;;;16.13;9.77;;;;;;;12.40;100.00;99050.09;5172009;27;20109;-51
2022/09/13 08:57:26;;;;;;;18.33;9.90;;;;;;;12.29;100.00;99044.47;5171094;27;20558;-54
2022/09/13 09:00:01;;;;;;;16.67;8.83;;;;;;;12.28;100.00;99037.41;5172259;27;20429;-54
2022/09/13 09:02:46;;;;;;;15.68;9.98;;;;;;;12.37;100.00;99043.38;5172074;27;20287;-54
2022/09/13 09:05:17;;;;;;;16.33;9.60;;;;;;;12.29;100.00;99044.47;5172167;27;20050;-55
2022/09/13 09:07:46;;;;;;;15.23;8.68;;;;;;;12.21;100.00;99043.63;5171909;27;20046;-54
2022/09/13 09:10:17;;;;;;;15.88;9.45;;;;;;;11.95;100.00;99043.75;5172029;27;20054;-51
2022/09/13 09:12:47;;;;;;;13.55;8.85;;;;;;;12.36;100.00;99032.75;5171974;27;20099;-52
2022/09/13 09:15:16;;;;;;;14.98;8.57;;;;;;;12.48;100.00;99025.00;5172059;27;20046;-55
2022/09/13 09:17:50;;;;;;;11.85;8.55;;;;;;;12.44;100.00;99039.91;5171640;27;20069;-52
2022/09/13 09:20:25;;;;;;;12.18;8.02;;;;;;;12.17;100.00;99029.06;5171756;27;20050;-55
2022/09/13 09:22:53;;;;;;;15.40;7.45;;;;;;;11.97;100.00;99024.97;5171401;27;20497;-52
2022/09/13 09:25:23;;;;;;;16.75;8.48;;;;;;;12.47;100.00;99015.19;5171159;27;20085;-55
2022/09/13 09:27:50;;;;;;;12.88;7.35;;;;;;;12.90;100.00;99021.00;5171991;27;20050;-51
2022/09/13 09:30:17;;;;;;;13.25;7.57;;;;;;;12.92;100.00;99040.63;5171426;27;20057;-55
2022/09/13 09:33:09;;;;;;;11.52;6.38;;;;;;;12.59;100.00;99049.84;5172175;27;20069;-51
2022/09/13 09:35:50;;;;;;;7.63;5.78;;;;;;;13.12;100.00;99046.66;5171806;27;20050;-54
2022/09/13 09:38:35;;;;;;;8.68;6.35;;;;;;;13.00;100.00;99046.22;5171780;27;20505;-51
2022/09/13 09:41:06;;;;;;;10.07;6.65;;;;;;;13.12;100.00;99032.88;5171761;27;20129;-53
2022/09/13 09:43:39;;;;;;;11.82;6.28;;;;;;;13.12;100.00;99035.66;5171469;27;20126;-51
2022/09/13 09:46:08;;;;;;;10.13;5.97;;;;;;;13.33;100.00;99032.25;5171578;27;20042;-55
2022/09/13 09:48:41;;;;;;;10.98;5.43;;;;;;;13.28;100.00;99029.06;5171674;27;20157;-51
2022/09/13 09:51:10;;;;;;;11.20;6.25;;;;;;;13.29;100.00;99012.16;5171349;27;20050;-52
2022/09/13 09:53:42;;;;;;;13.15;5.75;;;;;;;13.55;100.00;98991.03;5171232;27;20050;-51
2022/09/13 09:56:19;;;;;;;10.05;6.10;;;;;;;13.42;100.00;98961.06;5171476;27;20050;-54
2022/09/13 09:58:46;;;;;;;9.38;5.47;;;;;;;13.08;100.00;98976.25;5171512;27;20050;-52
2022/09/13 10:01:23;;;;;;;9.07;7.85;;;;;;;13.25;100.00;98994.84;5171181;27;20050;-53
2022/09/13 10:03:52;;;;;;;12.55;5.43;;;;;;;13.46;100.00;98980.38;5171240;27;20442;-54
2022/09/13 10:06:21;;;;;;;12.30;5.65;;;;;;;13.65;100.00;98979.25;5171192;27;20050;-51
2022/09/13 10:08:56;;;;;;;9.68;5.50;;;;;;;13.41;100.00;98967.00;5173986;27;20043;-54
2022/09/13 10:11:26;;;;;;;11.95;5.43;;;;;;;13.57;100.00;98970.19;5174608;27;20422;-54
2022/09/13 10:14:01;;;;;;;6.70;5.13;;;;;;;13.26;100.00;98957.09;5174490;27;20513;-50
2022/09/13 10:16:29;;;;;;;5.70;5.07;;;;;;;13.19;100.00;98944.88;5174917;27;20494;-50
2022/09/13 10:19:22;;;;;;;10.90;5.75;;;;;;;13.52;100.00;98958.75;5174906;27;20050;-53
2022/09/13 10:22:00;;;;;;;9.93;6.35;;;;;;;13.72;100.00;98932.41;5174513;27;20046;-50
2022/09/13 10:24:27;;;;;;;13.55;5.68;;;;;;;13.73;100.00;98930.44;5174263;27;20052;-50
2022/09/13 10:26:53;;;;;;;8.57;5.97;;;;;;;13.81;100.00;98921.81;5174337;27;20050;-53
2022/09/13 10:29:22;;;;;;;10.02;6.25;;;;;;;14.09;100.00;98867.88;5174233;27;20050;-51
2022/09/13 10:31:52;;;;;;;8.15;5.00;;;;;;;13.72;100.00;98846.25;5174349;27;20053;-53
2022/09/13 10:34:22;;;;;;;7.47;5.20;;;;;;;13.73;100.00;98889.13;5174576;27;20923;-51
2022/09/13 10:36:53;;;;;;;6.20;5.22;;;;;;;13.49;100.00;98907.19;5174123;27;20523;-53
2022/09/13 10:39:22;;;;;;;6.97;5.53;;;;;;;13.78;100.00;98957.63;5174015;27;20077;-52
2022/09/13 10:41:51;;;;;;;12.10;5.20;;;;;;;13.85;100.00;98921.81;5174178;27;20137;-53
2022/09/13 10:44:37;;;;;;;9.02;5.55;;;;;;;13.82;100.00;98919.84;5174108;27;20053;-53
2022/09/13 10:47:10;;;;;;;7.57;5.07;;;;;;;13.77;100.00;98863.16;5173815;27;20046;-53
2022/09/13 10:49:39;;;;;;;7.60;4.53;;;;;;;13.73;100.00;98788.00;5174180;27;20046;-53
2022/09/13 10:52:42;;;;;;;7.97;4.65;;;;;;;13.28;100.00;98731.75;5174091;27;20413;-51
2022/09/13 10:55:30;;;;;;;6.13;4.78;;;;;;;13.56;100.00;98766.75;5069108;28;20052;-54
2022/09/13 10:58:13;;;;;;;9.45;4.57;;;;;;;13.73;100.00;98732.09;5068975;28;20044;-55
2022/09/13 11:00:53;;;;;;;10.18;3.97;;;;;;;13.86;100.00;98742.34;5068714;28;20049;-52
2022/09/13 11:03:32;;;;;;;4.90;4.18;;;;;;;13.93;100.00;98689.19;5068930;28;20052;-55
2022/09/13 11:06:08;;;;;;;10.07;4.80;;;;;;;14.46;100.00;98671.63;5068829;28;20409;-53
2022/09/13 11:08:44;;;;;;;5.45;3.83;;;;;;;14.28;100.00;98601.97;5068839;28;20565;-52
2022/09/13 11:11:18;;;;;;;10.25;4.55;;;;;;;14.59;100.00;98589.19;5068894;28;20087;-54
2022/09/13 11:14:01;;;;;;;6.28;4.40;;;;;;;14.51;100.00;98616.03;5068734;28;20055;-51
2022/09/13 11:16:44;;;;;;;9.18;3.97;;;;;;;14.45;100.00;98507.31;5068836;28;20049;-51
2022/09/13 11:19:31;;;;;;;10.55;4.30;;;;;;;14.07;100.00;98498.94;5067813;28;20044;-52
2022/09/13 11:22:17;;;;;;;8.13;4.45;;;;;;;14.53;100.00;98558.50;5068675;28;20105;-51
2022/09/13 11:24:58;;;;;;;5.95;4.28;;;;;;;14.50;100.00;98492.31;5069773;27;20574;-51
2022/09/13 11:27:33;;;;;;;8.90;4.22;;;;;;;14.54;100.00;98482.06;5173406;27;20042;-50
2022/09/13 11:30:09;;;;;;;5.43;3.80;;;;;;;14.40;100.00;98314.72;5173666;27;20046;-55
2022/09/13 11:32:59;;;;;;;4.50;3.25;;;;;;;14.33;100.00;98265.19;5173490;27;20046;-54